LFKJ/AJA METAR and TAF weather

Enter ICAO airport designator
Station Type Date Time Source
LFKJ METAR 2019/05/26 23:30 UTC NOAA

LFKJ 262330Z AUTO 03002KT 7000 OVC011 16/15 Q1006 TEMPO RA


Station Type Date Time Source
LFKJ Decoded METAR 2019/05/26 23:30 UTC NOAA

Ajaccio, France (LFKJ) 41-55N 008-48E 9M
May 26, 2019 - 07:30 PM EDT / 2019.05.26 2330 UTC
Wind: from the NNE (030 degrees) at 2 MPH (2 KT):0
Visibility: 4 mile(s):0
Sky conditions: overcast
Temperature: 60 F (16 C)
Dew Point: 59 F (15 C)
Relative Humidity: 93%
Pressure (altimeter): 29.71 in. Hg (1006 hPa)
ob: LFKJ 262330Z AUTO 03002KT 7000 OVC011 16/15 Q1006 TEMPO RA
cycle: 23

Station Type Date Time Source
LFKJ TAF 2019/05/26 21:45 UTC NOAA

TAF LFKJ 262000Z 2621/2721 22005KT 9999 FEW015 BKN060 BKN100
TEMPO 2621/2717 RA PROB40
TEMPO 2621/2708 BKN010 PROB40
TEMPO 2710/2715 FEW035TCU PROB40
TEMPO 2715/2717 TS BKN025 FEW030CB BKN050 BKN080
BECMG 2717/2719 32010KT

Example: see airport list